Time;durP1;ratioP1;P1;durP2;ratioP2;P2;SDS_P1;SDS_P2;PMS_P1;PMS_P2;Temp;Humidity;BMP_temperature;BMP_pressure;BME280_temperature;BME280_humidity;BME280_pressure;Samples;Min_cycle;Max_cycle;Signal;HPM_P1;HPM_P2
2022/06/23 00:00:05;;;;;;;973.22;908.60;;;;;;;21.82;48.52;100887.91;692134;28;137925;-64
2022/06/23 00:00:28;;;;;;;988.38;923.25;;;;;;;21.78;48.74;100879.31;694832;28;93248;-65
2022/06/23 00:00:50;;;;;;;986.42;921.30;;;;;;;21.82;48.65;100887.06;694508;28;69419;-64
2022/06/23 00:01:14;;;;;;;977.55;912.80;;;;;;;21.82;48.74;100887.91;696501;28;24924;-65
2022/06/23 00:01:42;;;;;;;985.97;920.90;;;;;;;21.83;48.67;100888.75;692899;28;115048;-63
2022/06/23 00:02:06;;;;;;;996.55;931.05;;;;;;;21.82;48.57;100887.91;691172;28;161871;-64
2022/06/23 00:02:29;;;;;;;987.03;921.92;;;;;;;21.82;48.67;100884.31;693288;28;92073;-64
2022/06/23 00:02:53;;;;;;;998.90;933.33;;;;;;;21.82;48.60;100884.31;695236;28;69447;-63
2022/06/23 00:03:18;;;;;;;1002.10;936.45;;;;;;;21.81;48.58;100879.91;694277;28;92560;-63
2022/06/23 00:03:42;;;;;;;997.25;931.67;;;;;;;21.80;48.56;100884.56;691787;28;138028;-62
2022/06/23 00:04:03;;;;;;;1007.05;941.22;;;;;;;21.79;48.58;100882.91;694697;28;69310;-65
2022/06/23 00:04:29;;;;;;;1006.35;940.55;;;;;;;21.80;48.49;100883.75;695266;28;46313;-63
2022/06/23 00:04:53;;;;;;;996.67;931.25;;;;;;;21.78;48.79;100890.31;690818;28;137881;-65
2022/06/23 00:05:18;;;;;;;992.63;927.33;;;;;;;21.78;48.61;100882.06;695380;28;67266;-64
2022/06/23 00:05:41;;;;;;;994.13;928.72;;;;;;;21.77;48.59;100883.16;691736;28;139849;-63
2022/06/23 00:06:06;;;;;;;1001.42;935.78;;;;;;;21.77;48.74;100885.91;695746;28;45210;-63
2022/06/23 00:06:38;;;;;;;1005.88;940.10;;;;;;;21.77;48.61;100888.66;694492;28;115345;-63
2022/06/23 00:07:02;;;;;;;1003.38;937.53;;;;;;;21.76;48.68;100889.72;691677;28;137490;-63
2022/06/23 00:07:27;;;;;;;1007.93;941.93;;;;;;;21.76;48.85;100886.97;694347;28;92970;-64
2022/06/23 00:07:50;;;;;;;1013.90;947.80;;;;;;;21.78;48.83;100886.72;693276;28;115166;-64
2022/06/23 00:08:13;;;;;;;1011.28;945.28;;;;;;;21.79;48.64;100888.41;694105;28;92295;-65
2022/06/23 00:08:42;;;;;;;1013.78;947.63;;;;;;;21.78;48.64;100889.47;695625;28;45083;-64
2022/06/23 00:09:29;;;;;;;1007.35;941.38;;;;;;;21.78;48.70;100875.75;692209;28;136292;-64
2022/06/23 00:09:52;;;;;;;1003.10;937.42;;;;;;;21.76;48.69;100888.91;690734;28;138376;-63
2022/06/23 00:10:15;;;;;;;1007.35;941.47;;;;;;;21.73;48.58;100889.41;696148;28;35355;-64
2022/06/23 00:10:40;;;;;;;1000.80;935.20;;;;;;;21.74;48.58;100880.91;693994;28;68320;-64
2022/06/23 00:11:01;;;;;;;1002.08;936.45;;;;;;;21.74;48.71;100883.66;692944;28;115125;-64
2022/06/23 00:11:24;;;;;;;1003.15;937.55;;;;;;;21.73;48.74;100883.91;696307;28;22462;-64
2022/06/23 00:11:49;;;;;;;1009.30;943.42;;;;;;;21.72;48.91;100888.56;693898;28;90721;-64
2022/06/23 00:12:24;;;;;;;1011.53;945.53;;;;;;;21.71;49.14;100883.31;693855;28;92301;-64
2022/06/23 00:12:45;;;;;;;1000.35;934.70;;;;;;;21.69;48.81;100885.47;692979;28;99578;-64
2022/06/23 00:13:12;;;;;;;1005.50;939.65;;;;;;;21.65;48.86;100885.13;695344;28;47172;-63
2022/06/23 00:13:37;;;;;;;1005.10;939.30;;;;;;;21.66;48.95;100881.31;691508;28;160558;-64
2022/06/23 00:14:12;;;;;;;1000.15;934.53;;;;;;;21.61;48.93;100889.44;692782;28;115840;-64
2022/06/23 00:14:39;;;;;;;988.25;923.13;;;;;;;21.61;48.75;100889.44;693813;28;59706;-63
2022/06/23 00:15:25;;;;;;;999.22;933.60;;;;;;;21.60;48.88;100887.81;695647;28;21510;-65
2022/06/23 00:15:46;;;;;;;1001.35;935.63;;;;;;;21.60;48.87;100898.78;691923;28;136022;-63
2022/06/23 00:16:21;;;;;;;1000.10;934.38;;;;;;;21.59;48.80;100889.69;696475;28;22533;-63
2022/06/23 00:16:51;;;;;;;1007.38;941.40;;;;;;;21.60;48.90;100885.06;690654;28;160898;-64
2022/06/23 00:17:17;;;;;;;976.47;911.63;;;;;;;21.59;49.00;100889.69;690706;28;159270;-64
2022/06/23 00:17:40;;;;;;;962.72;898.38;;;;;;;21.59;49.09;100888.88;692296;28;138075;-62
2022/06/23 00:18:06;;;;;;;947.25;883.45;;;;;;;21.56;49.09;100892.94;694610;28;69279;-62
2022/06/23 00:18:31;;;;;;;950.75;886.88;;;;;;;21.58;48.82;100896.28;692739;28;135908;-63
2022/06/23 00:18:53;;;;;;;949.90;886.00;;;;;;;21.57;49.08;100889.13;692880;28;138260;-62
2022/06/23 00:19:17;;;;;;;958.53;894.33;;;;;;;21.57;49.20;100889.13;696812;28;22380;-63
2022/06/23 00:19:39;;;;;;;964.88;900.50;;;;;;;21.58;49.03;100892.69;692651;28;114915;-64
2022/06/23 00:20:05;;;;;;;963.47;899.10;;;;;;;21.59;49.05;100894.38;695223;28;45310;-63
2022/06/23 00:20:30;;;;;;;940.70;877.05;;;;;;;21.58;49.14;100899.03;692981;28;115058;-65
2022/06/23 00:20:55;;;;;;;947.33;883.50;;;;;;;21.56;49.28;100895.69;692427;28;138105;-64
2022/06/23 00:21:20;;;;;;;952.80;888.83;;;;;;;21.58;49.10;100890.81;693846;28;92422;-64
2022/06/23 00:21:44;;;;;;;969.70;905.08;;;;;;;21.59;49.07;100889.69;693419;28;113556;-64
2022/06/23 00:22:05;;;;;;;977.92;913.03;;;;;;;21.60;48.98;100898.78;693641;28;92120;-64
2022/06/23 00:22:29;;;;;;;979.10;914.22;;;;;;;21.56;49.02;100886.63;697410;28;22414;-63
2022/06/23 00:22:53;;;;;;;977.72;912.85;;;;;;;21.57;49.00;100883.63;694025;28;92201;-64
2022/06/23 00:23:16;;;;;;;973.10;908.42;;;;;;;21.58;48.90;100893.56;694022;28;93038;-64
2022/06/23 00:23:39;;;;;;;970.92;906.33;;;;;;;21.59;48.91;100892.44;693869;28;91990;-64
2022/06/23 00:24:03;;;;;;;987.30;922.13;;;;;;;21.60;48.88;100890.56;693205;28;69423;-64
2022/06/23 00:24:26;;;;;;;982.30;917.30;;;;;;;21.60;48.82;100894.13;694618;28;69524;-64
2022/06/23 00:24:48;;;;;;;987.42;922.22;;;;;;;21.60;48.89;100894.13;694045;28;70265;-64
2022/06/23 00:25:21;;;;;;;996.83;931.30;;;;;;;21.59;48.97;100891.63;695173;28;45352;-64
2022/06/23 00:25:47;;;;;;;1014.53;948.33;;;;;;;21.60;48.91;100887.81;691872;28;137967;-64
2022/06/23 00:26:12;;;;;;;1012.88;946.83;;;;;;;21.58;49.06;100893.56;693448;28;115281;-64
2022/06/23 00:26:34;;;;;;;1005.97;940.13;;;;;;;21.58;49.06;100895.44;692849;28;113431;-63
2022/06/23 00:26:56;;;;;;;1003.30;937.45;;;;;;;21.58;48.93;100895.44;694177;28;69888;-64
2022/06/23 00:27:20;;;;;;;994.53;928.92;;;;;;;21.55;49.05;100891.28;694849;28;47181;-65
2022/06/23 00:27:41;;;;;;;1004.67;938.78;;;;;;;21.57;48.81;100894.63;692093;28;67440;-65
2022/06/23 00:28:03;;;;;;;1010.10;944.10;;;;;;;21.55;48.91;100885.78;693728;28;23270;-65
2022/06/23 00:28:28;;;;;;;1005.50;939.70;;;;;;;21.55;48.88;100894.03;693048;28;67538;-62
2022/06/23 00:28:51;;;;;;;1007.15;941.17;;;;;;;21.55;49.04;100888.53;690672;28;113099;-64
2022/06/23 00:29:15;;;;;;;1003.17;937.33;;;;;;;21.51;48.90;100875.53;692416;28;69410;-64
2022/06/23 00:29:36;;;;;;;1005.90;940.00;;;;;;;21.54;48.85;100888.78;693079;28;92192;-63
2022/06/23 00:30:00;;;;;;;1006.45;940.50;;;;;;;21.52;48.95;100888.19;694888;28;44258;-63
2022/06/23 00:30:26;;;;;;;1002.13;936.33;;;;;;;21.49;48.93;100883.19;692631;28;115182;-63
2022/06/23 00:30:52;;;;;;;1007.10;941.17;;;;;;;21.52;48.98;100896.44;693301;28;137619;-64
2022/06/23 00:31:25;;;;;;;1013.75;947.58;;;;;;;21.49;49.07;100889.53;692290;28;137954;-63
2022/06/23 00:31:54;;;;;;;1003.70;937.92;;;;;;;21.48;48.99;100887.81;688962;28;160060;-63
2022/06/23 00:32:16;;;;;;;1007.08;941.08;;;;;;;21.47;48.96;100888.88;689334;28;137892;-63
2022/06/23 00:32:38;;;;;;;999.33;933.72;;;;;;;21.46;48.93;100887.25;692653;28;46604;-66
2022/06/23 00:33:06;;;;;;;1002.13;936.33;;;;;;;21.45;49.06;100884.75;692782;28;45340;-63
2022/06/23 00:33:29;;;;;;;1005.50;939.70;;;;;;;21.43;49.06;100891.31;691378;28;82280;-64
2022/06/23 00:33:50;;;;;;;1002.17;936.45;;;;;;;21.43;48.94;100884.97;694515;28;69435;-65
2022/06/23 00:34:17;;;;;;;1000.13;934.50;;;;;;;21.40;49.05;100885.47;697192;28;1520;-63
2022/06/23 00:34:40;;;;;;;997.40;931.80;;;;;;;21.41;49.08;100889.88;691632;28;138041;-63
2022/06/23 00:35:05;;;;;;;995.65;930.08;;;;;;;21.40;49.03;100882.72;694433;28;70154;-64
2022/06/23 00:35:26;;;;;;;993.15;927.65;;;;;;;21.37;49.23;100884.03;692787;28;115906;-64
2022/06/23 00:35:50;;;;;;;997.53;931.95;;;;;;;21.38;49.25;100884.91;695584;28;44177;-63
2022/06/23 00:36:16;;;;;;;1001.40;935.65;;;;;;;21.39;49.14;100889.28;694913;28;68605;-63
2022/06/23 00:36:41;;;;;;;1012.40;946.15;;;;;;;21.35;49.11;100883.47;691300;28;160820;-63
2022/06/23 00:37:05;;;;;;;1000.80;934.97;;;;;;;21.37;49.29;100892.28;692241;28;115852;-64
2022/06/23 00:37:27;;;;;;;972.63;907.88;;;;;;;21.36;49.37;100892.53;693531;28;92316;-63
2022/06/23 00:37:51;;;;;;;956.60;892.47;;;;;;;21.35;49.20;100883.47;695436;28;46916;-64
2022/06/23 00:38:19;;;;;;;957.17;893.08;;;;;;;21.35;49.24;100888.97;694048;28;91982;-64
2022/06/23 00:38:40;;;;;;;962.00;897.63;;;;;;;21.36;49.36;100884.28;691700;28;137591;-63
2022/06/23 00:39:03;;;;;;;961.30;896.90;;;;;;;21.35;49.09;100888.13;695489;28;22365;-64
2022/06/23 00:39:29;;;;;;;961.85;897.58;;;;;;;21.31;49.31;100885.03;694963;28;69471;-63
2022/06/23 00:39:52;;;;;;;976.38;911.55;;;;;;;21.32;49.12;100888.63;691533;28;136509;-64
2022/06/23 00:40:18;;;;;;;974.75;910.00;;;;;;;21.30;49.35;100888.88;693932;28;92273;-62
2022/06/23 00:40:43;;;;;;;953.55;889.55;;;;;;;21.30;49.50;100885.25;692970;28;114817;-63
2022/06/23 00:41:05;;;;;;;968.95;904.42;;;;;;;21.30;49.37;100886.13;692947;28;115202;-63
2022/06/23 00:41:29;;;;;;;972.88;908.22;;;;;;;21.30;49.52;100893.50;695681;28;46360;-63
2022/06/23 00:41:51;;;;;;;956.03;891.95;;;;;;;21.30;49.64;100893.50;693862;28;92244;-63
2022/06/23 00:42:21;;;;;;;964.08;899.80;;;;;;;21.29;49.38;100887.19;695350;28;43727;-64
2022/06/23 00:42:50;;;;;;;977.58;912.78;;;;;;;21.30;49.59;100893.50;692166;28;137445;-64
2022/06/23 00:43:12;;;;;;;959.15;894.95;;;;;;;21.29;49.42;100883.63;692413;28;137535;-64
2022/06/23 00:43:35;;;;;;;969.65;905.17;;;;;;;21.29;49.48;100887.19;696395;28;21405;-63
2022/06/23 00:44:00;;;;;;;975.72;911.03;;;;;;;21.31;49.64;100889.69;694733;28;64716;-63
2022/06/23 00:44:28;;;;;;;973.40;908.75;;;;;;;21.31;49.58;100887.78;693208;28;115115;-63
2022/06/23 00:44:52;;;;;;;985.28;920.20;;;;;;;21.32;49.46;100886.69;691127;28;137560;-62
2022/06/23 00:45:22;;;;;;;971.03;906.53;;;;;;;21.31;49.49;100889.69;693256;28;115584;-63
2022/06/23 00:45:46;;;;;;;974.33;909.70;;;;;;;21.33;49.37;100895.75;692247;28;138504;-64
2022/06/23 00:46:10;;;;;;;974.72;910.08;;;;;;;21.30;49.57;100885.25;694018;28;93404;-64
2022/06/23 00:46:36;;;;;;;980.58;915.78;;;;;;;21.31;49.47;100893.25;694183;28;92110;-64
2022/06/23 00:47:02;;;;;;;979.75;914.83;;;;;;;21.31;49.47;100892.44;691463;28;161434;-63
2022/06/23 00:47:29;;;;;;;958.17;893.92;;;;;;;21.32;49.50;100883.13;694942;28;62324;-64
2022/06/23 00:47:54;;;;;;;980.55;915.70;;;;;;;21.33;49.43;100887.53;692218;28;137993;-63
2022/06/23 00:48:23;;;;;;;978.70;913.83;;;;;;;21.32;49.48;100896.88;693741;28;116066;-62
2022/06/23 00:48:46;;;;;;;991.85;926.53;;;;;;;21.33;49.44;100893.00;691770;28;137671;-64
2022/06/23 00:49:16;;;;;;;987.83;922.65;;;;;;;21.31;49.30;100890.50;693783;28;92285;-64
2022/06/23 00:49:45;;;;;;;980.20;915.30;;;;;;;21.32;49.28;100894.94;691401;28;136112;-64
2022/06/23 00:50:19;;;;;;;1004.50;938.50;;;;;;;21.27;49.67;100888.50;692013;28;138918;-64
2022/06/23 00:50:48;;;;;;;979.47;914.55;;;;;;;21.29;49.36;100895.44;692007;28;137489;-64
2022/06/23 00:51:12;;;;;;;984.70;919.63;;;;;;;21.29;49.49;100894.59;692272;28;137829;-63
2022/06/23 00:51:39;;;;;;;990.10;924.80;;;;;;;21.27;49.49;100897.59;693570;28;92025;-63
2022/06/23 00:52:09;;;;;;;975.28;910.53;;;;;;;21.29;49.70;100891.84;692169;28;137907;-63
2022/06/23 00:52:34;;;;;;;981.20;916.20;;;;;;;21.28;49.44;100890.19;692721;28;137629;-64
2022/06/23 00:52:59;;;;;;;981.17;916.15;;;;;;;21.27;49.41;100894.84;689526;28;138056;-63
2022/06/23 00:53:23;;;;;;;983.17;918.17;;;;;;;21.26;49.41;100895.09;691205;28;93158;-63
2022/06/23 00:53:49;;;;;;;984.78;919.78;;;;;;;21.27;49.52;100902.22;691310;28;92318;-63
2022/06/23 00:54:16;;;;;;;999.08;933.40;;;;;;;21.26;49.60;100893.16;689709;28;138021;-63
2022/06/23 00:54:42;;;;;;;991.33;925.97;;;;;;;21.25;49.43;100899.72;688438;28;137749;-65
2022/06/23 00:55:11;;;;;;;992.45;927.03;;;;;;;21.24;49.57;100895.34;691174;28;161555;-65
2022/06/23 00:55:41;;;;;;;990.83;925.53;;;;;;;21.23;49.39;100894.47;692034;28;135961;-64
2022/06/23 00:56:10;;;;;;;996.97;931.42;;;;;;;21.23;49.43;100890.91;692727;28;137275;-65
2022/06/23 00:56:40;;;;;;;1002.85;937.05;;;;;;;21.24;49.28;100898.91;692125;28;137780;-64
2022/06/23 00:57:06;;;;;;;1008.50;942.42;;;;;;;21.23;49.31;100905.47;691581;28;137977;-64
2022/06/23 00:57:31;;;;;;;1028.60;961.67;;;;;;;21.23;49.45;100904.66;693018;28;136255;-63
2022/06/23 00:57:58;;;;;;;1021.25;954.65;;;;;;;21.21;49.77;100902.13;691901;28;113597;-64
2022/06/23 00:58:27;;;;;;;1018.38;951.97;;;;;;;21.19;49.65;100898.81;691177;28;137941;-64
2022/06/23 00:58:52;;;;;;;1012.22;946.13;;;;;;;21.19;49.44;100901.56;691992;28;136198;-64
2022/06/23 00:59:18;;;;;;;1013.25;947.15;;;;;;;21.21;49.50;100904.06;693208;28;114174;-64
2022/06/23 00:59:47;;;;;;;1005.45;939.65;;;;;;;21.20;49.72;100899.63;691371;28;137763;-64
2022/06/23 01:00:13;;;;;;;990.75;925.40;;;;;;;21.17;49.78;100900.94;691231;28;160607;-64
2022/06/23 01:00:36;;;;;;;990.90;925.65;;;;;;;21.17;49.52;100903.69;692127;28;137743;-64
2022/06/23 01:01:02;;;;;;;1004.95;939.15;;;;;;;21.17;49.72;100900.94;695019;28;67505;-64
2022/06/23 01:01:29;;;;;;;1003.65;937.83;;;;;;;21.18;49.83;100901.81;692132;28;138211;-63
2022/06/23 01:01:55;;;;;;;1016.30;950.00;;;;;;;21.18;49.66;100901.81;691678;28;137959;-64
2022/06/23 01:02:19;;;;;;;1015.45;949.08;;;;;;;21.16;49.59;100907.53;691777;28;137924;-63
2022/06/23 01:02:43;;;;;;;1015.17;948.88;;;;;;;21.19;49.62;100900.72;693423;28;92144;-64
2022/06/23 01:03:14;;;;;;;1003.30;937.50;;;;;;;21.19;49.61;100904.31;693053;28;115092;-64
2022/06/23 01:03:42;;;;;;;1014.83;948.58;;;;;;;21.18;49.50;100904.56;691579;28;138201;-63
2022/06/23 01:04:07;;;;;;;1010.72;944.63;;;;;;;21.17;49.68;100903.69;691727;28;160506;-64
2022/06/23 01:04:34;;;;;;;1012.65;946.53;;;;;;;21.16;49.69;100902.03;693067;28;115165;-64
2022/06/23 01:05:00;;;;;;;1000.17;934.47;;;;;;;21.18;49.77;100904.56;690645;28;136467;-64
2022/06/23 01:05:24;;;;;;;993.15;927.13;;;;;;;21.17;49.52;100900.13;688275;28;159187;-64
2022/06/23 01:05:49;;;;;;;1007.90;941.72;;;;;;;21.16;49.69;100904.78;692549;28;92285;-64
2022/06/23 01:06:14;;;;;;;1011.08;944.90;;;;;;;21.15;49.93;100897.63;692251;28;116391;-62
2022/06/23 01:06:39;;;;;;;1006.92;940.95;;;;;;;21.15;49.69;100905.88;691950;28;115552;-64
2022/06/23 01:07:06;;;;;;;1007.40;941.25;;;;;;;21.15;49.64;100911.34;692089;28;115094;-64
2022/06/23 01:07:38;;;;;;;1010.97;944.78;;;;;;;21.14;49.72;100909.69;691300;28;162048;-64
2022/06/23 01:08:05;;;;;;;1008.45;942.40;;;;;;;21.12;49.99;100903.59;692144;28;138025;-64
2022/06/23 01:08:31;;;;;;;1015.10;948.75;;;;;;;21.13;49.87;100902.53;691415;28;134764;-64
2022/06/23 01:08:55;;;;;;;1003.20;937.47;;;;;;;21.14;49.64;100904.19;692924;28;137284;-65
2022/06/23 01:09:35;;;;;;;991.10;925.80;;;;;;;21.16;49.72;100910.28;692830;28;90103;-64
2022/06/23 01:10:00;;;;;;;1000.20;934.58;;;;;;;21.14;49.75;100898.69;691049;28;137810;-65
2022/06/23 01:10:25;;;;;;;1001.70;935.92;;;;;;;21.14;49.71;100903.34;693191;28;114575;-64
2022/06/23 01:10:49;;;;;;;1008.83;942.80;;;;;;;21.13;49.80;100905.28;693133;28;114546;-65
2022/06/23 01:11:19;;;;;;;1010.28;944.20;;;;;;;21.13;49.66;100907.16;693907;28;92261;-64
2022/06/23 01:11:42;;;;;;;1003.13;937.40;;;;;;;21.14;49.63;100909.69;692141;28;137344;-64
2022/06/23 01:12:13;;;;;;;1008.53;942.53;;;;;;;21.13;49.80;100912.66;693873;28;91958;-64
2022/06/23 01:12:39;;;;;;;1008.42;942.42;;;;;;;21.12;49.69;100906.34;692487;28;137458;-64
2022/06/23 01:13:04;;;;;;;1006.40;940.58;;;;;;;21.12;49.57;100908.28;692221;28;138095;-64
2022/06/23 01:13:29;;;;;;;1004.40;938.65;;;;;;;21.10;49.76;100908.50;692518;28;115272;-64
2022/06/23 01:13:56;;;;;;;1012.05;945.85;;;;;;;21.09;49.76;100906.00;692411;28;113676;-64
2022/06/23 01:14:26;;;;;;;1011.88;945.67;;;;;;;21.06;49.93;100913.66;693168;28;136482;-64
2022/06/23 01:14:50;;;;;;;995.58;930.05;;;;;;;21.06;49.93;100904.56;690953;28;137864;-65
2022/06/23 01:15:20;;;;;;;999.03;933.40;;;;;;;21.04;49.87;100904.81;692869;28;91928;-63
2022/06/23 01:15:45;;;;;;;1000.58;934.88;;;;;;;21.04;49.83;100910.31;691868;28;136148;-63
2022/06/23 01:16:14;;;;;;;1001.15;935.45;;;;;;;21.04;49.77;100912.22;693099;28;113869;-63
2022/06/23 01:16:41;;;;;;;997.33;931.72;;;;;;;21.02;49.88;100911.66;691822;28;137753;-64
2022/06/23 01:17:10;;;;;;;991.45;926.05;;;;;;;21.00;50.03;100911.03;691364;28;137786;-64
2022/06/23 01:17:35;;;;;;;990.20;924.90;;;;;;;20.98;50.00;100913.19;692211;28;137889;-64
2022/06/23 01:18:02;;;;;;;991.95;926.63;;;;;;;20.98;49.95;100904.97;692969;28;113574;-64
2022/06/23 01:18:26;;;;;;;1002.63;936.83;;;;;;;20.97;49.95;100903.28;692078;28;137653;-64
2022/06/23 01:18:55;;;;;;;986.35;921.17;;;;;;;20.96;50.06;100902.47;693856;28;91523;-63
2022/06/23 01:19:45;;;;;;;942.00;878.40;;;;;;;20.94;50.21;100912.00;693227;28;137379;-64
2022/06/23 01:20:20;;;;;;;944.35;880.63;;;;;;;20.96;50.21;100913.44;681898;28;157933;-63
2022/06/23 01:20:48;;;;;;;964.92;900.42;;;;;;;20.94;49.90;100896.38;691638;28;136011;-63
2022/06/23 01:21:16;;;;;;;970.33;905.78;;;;;;;20.95;50.10;100906.28;692536;28;137514;-63
2022/06/23 01:21:40;;;;;;;966.20;901.72;;;;;;;20.89;50.24;100893.50;692261;28;138566;-63
2022/06/23 01:22:04;;;;;;;966.55;902.15;;;;;;;20.94;50.19;100904.63;694102;28;92240;-63
2022/06/23 01:22:36;;;;;;;974.38;909.67;;;;;;;20.95;50.10;100913.69;694261;28;91952;-64
2022/06/23 01:23:23;;;;;;;975.85;911.15;;;;;;;20.95;50.04;100899.94;692223;28;138253;-64
2022/06/23 01:24:08;;;;;;;973.28;908.58;;;;;;;20.94;50.02;100910.09;690467;28;160454;-64
2022/06/23 01:24:34;;;;;;;970.45;905.85;;;;;;;20.93;50.20;100905.69;691744;28;137556;-64
2022/06/23 01:25:01;;;;;;;967.30;902.75;;;;;;;20.94;50.21;100909.25;692046;28;138879;-63
2022/06/23 01:25:49;;;;;;;979.10;914.00;;;;;;;20.92;50.14;100903.19;692019;28;137543;-64
2022/06/23 01:26:34;;;;;;;984.08;918.97;;;;;;;20.92;50.17;100904.00;683172;28;138444;-64
2022/06/23 01:27:06;;;;;;;978.63;913.63;;;;;;;20.91;50.20;100905.09;691532;28;136305;-64
2022/06/23 01:27:45;;;;;;;979.63;914.55;;;;;;;20.91;50.19;100902.34;692395;28;137223;-65
2022/06/23 01:28:09;;;;;;;980.15;915.17;;;;;;;20.85;50.07;100895.09;692331;28;137731;-64
2022/06/23 01:28:36;;;;;;;975.72;910.88;;;;;;;20.88;50.11;100906.41;693829;28;92288;-64
2022/06/23 01:29:00;;;;;;;979.28;914.35;;;;;;;20.90;50.33;100903.41;692185;28;136659;-64
2022/06/23 01:29:25;;;;;;;985.22;920.03;;;;;;;20.91;50.32;100907.00;694085;28;92095;-65
2022/06/23 01:29:53;;;;;;;985.40;920.20;;;;;;;20.91;50.08;100905.09;692502;28;116365;-65
2022/06/23 01:30:15;;;;;;;981.30;916.30;;;;;;;20.91;50.05;100894.13;692370;28;138051;-63
2022/06/23 01:30:38;;;;;;;990.85;925.45;;;;;;;20.92;50.13;100903.19;695524;28;45252;-62
2022/06/23 01:31:03;;;;;;;996.40;930.70;;;;;;;20.91;50.18;100907.00;694195;28;71159;-63
2022/06/23 01:31:28;;;;;;;989.17;923.90;;;;;;;20.88;50.11;100897.34;693114;28;115947;-63
2022/06/23 01:31:52;;;;;;;974.85;910.08;;;;;;;20.91;50.10;100901.50;692805;28;113560;-63
2022/06/23 01:32:18;;;;;;;968.00;903.53;;;;;;;20.90;50.19;100906.16;694273;28;90320;-62
2022/06/23 01:32:49;;;;;;;979.42;914.47;;;;;;;20.90;50.28;100905.34;691507;28;139708;-62
2022/06/23 01:33:16;;;;;;;986.95;921.78;;;;;;;20.87;50.23;100907.47;692363;28;137759;-62
2022/06/23 01:33:42;;;;;;;977.35;912.55;;;;;;;20.87;50.16;100898.41;692306;28;138020;-64
2022/06/23 01:34:09;;;;;;;998.90;933.25;;;;;;;20.86;50.12;100903.09;691949;28;138077;-63
2022/06/23 01:34:38;;;;;;;1010.72;944.63;;;;;;;20.85;50.19;100897.84;691841;28;138184;-63
2022/06/23 01:35:06;;;;;;;1016.20;949.85;;;;;;;20.84;50.35;100904.38;690585;28;157409;-63
2022/06/23 01:35:31;;;;;;;1009.85;943.78;;;;;;;20.83;50.13;100895.31;692947;28;136271;-63
2022/06/23 01:35:58;;;;;;;1005.25;939.35;;;;;;;20.81;50.41;100897.47;692362;28;113318;-63
2022/06/23 01:36:23;;;;;;;997.15;931.55;;;;;;;20.82;50.23;100898.31;691970;28;137687;-63
2022/06/23 01:36:47;;;;;;;980.08;915.08;;;;;;;20.80;50.29;100904.03;692432;28;113529;-63
2022/06/23 01:37:14;;;;;;;974.20;909.30;;;;;;;20.78;50.35;100895.19;692971;28;90337;-63
2022/06/23 01:37:40;;;;;;;983.42;918.33;;;;;;;20.80;50.32;100897.69;691643;28;137685;-63
2022/06/23 01:38:03;;;;;;;991.08;925.72;;;;;;;20.81;50.27;100902.13;692659;28;137809;-63
2022/06/23 01:38:31;;;;;;;997.53;932.03;;;;;;;20.81;50.41;100907.63;694313;28;69396;-64
2022/06/23 01:38:59;;;;;;;1005.47;939.67;;;;;;;20.80;50.28;100898.56;691100;28;160912;-63
2022/06/23 01:39:26;;;;;;;1003.95;938.15;;;;;;;20.80;50.46;100905.94;691398;28;137793;-63
2022/06/23 01:39:52;;;;;;;979.78;914.72;;;;;;;20.79;50.35;100902.38;690922;28;138149;-63
2022/06/23 01:40:18;;;;;;;989.53;924.22;;;;;;;20.78;50.42;100906.19;692425;28;137665;-64
2022/06/23 01:40:43;;;;;;;1004.33;938.45;;;;;;;20.78;50.38;100902.59;691788;28;136385;-63
2022/06/23 01:41:13;;;;;;;1005.60;939.72;;;;;;;20.75;50.45;100898.41;694400;28;60318;-65
2022/06/23 01:41:38;;;;;;;1008.97;942.97;;;;;;;20.77;50.24;100903.66;691106;28;161689;-64
2022/06/23 01:42:02;;;;;;;1006.63;940.72;;;;;;;20.74;50.29;100890.47;692775;28;115200;-64
2022/06/23 01:42:30;;;;;;;1008.00;942.05;;;;;;;20.74;50.46;100895.94;693477;28;92252;-63
2022/06/23 01:42:57;;;;;;;1006.13;940.13;;;;;;;20.74;50.60;100894.03;690975;28;138042;-64
2022/06/23 01:43:22;;;;;;;1004.65;938.80;;;;;;;20.74;50.38;100904.19;692002;28;138655;-64
2022/06/23 01:43:48;;;;;;;995.53;929.97;;;;;;;20.75;50.36;100898.41;692777;28;114937;-64
2022/06/23 01:44:19;;;;;;;988.95;923.70;;;;;;;20.74;50.44;100898.69;692544;28;138131;-64
2022/06/23 01:44:46;;;;;;;1001.00;935.30;;;;;;;20.76;50.24;100902.84;691566;28;129461;-64
2022/06/23 01:45:10;;;;;;;1009.10;943.05;;;;;;;20.75;50.32;100901.16;691571;28;159339;-63
2022/06/23 01:45:35;;;;;;;1001.08;935.40;;;;;;;20.68;50.35;100881.28;693096;28;104978;-63
2022/06/23 01:46:01;;;;;;;1000.53;934.75;;;;;;;20.69;50.55;100891.19;692794;28;113514;-64
2022/06/23 01:46:26;;;;;;;1002.92;937.13;;;;;;;20.70;50.32;100890.94;691986;28;137831;-63
2022/06/23 01:46:51;;;;;;;1003.47;937.55;;;;;;;20.70;50.24;100893.69;697290;28;38823;-63
2022/06/23 01:47:20;;;;;;;1003.47;937.47;;;;;;;20.72;50.39;100896.19;694366;28;115084;-64
2022/06/23 01:47:50;;;;;;;1000.55;934.80;;;;;;;20.70;50.31;100896.44;693132;28;160789;-64
2022/06/23 01:48:13;;;;;;;1005.78;939.88;;;;;;;20.68;50.39;100895.81;694673;28;136035;-63
2022/06/23 01:48:52;;;;;;;1005.63;939.72;;;;;;;20.69;50.46;100891.19;696112;28;69416;-63
2022/06/23 01:49:16;;;;;;;1003.78;937.88;;;;;;;20.69;50.35;100894.75;692501;28;137485;-63
2022/06/23 01:49:42;;;;;;;992.50;927.15;;;;;;;20.70;50.38;100898.31;692593;28;92254;-64
2022/06/23 01:50:26;;;;;;;993.03;927.63;;;;;;;20.70;50.46;100895.56;692007;28;137961;-63
2022/06/23 01:50:50;;;;;;;1006.88;941.00;;;;;;;20.70;50.47;100895.56;691873;28;137750;-63
2022/06/23 01:51:21;;;;;;;993.78;928.38;;;;;;;20.68;50.56;100895.81;693379;28;90296;-63
2022/06/23 01:51:47;;;;;;;1003.10;937.33;;;;;;;20.68;50.47;100898.56;691501;28;137201;-64
2022/06/23 01:52:11;;;;;;;1003.50;937.78;;;;;;;20.68;50.51;100895.00;692125;28;136446;-63
2022/06/23 01:52:34;;;;;;;1002.90;937.20;;;;;;;20.67;50.37;100890.56;693572;28;92293;-63
2022/06/23 01:53:12;;;;;;;996.58;930.97;;;;;;;20.62;50.51;100884.94;694320;28;69188;-63
2022/06/23 01:53:34;;;;;;;1000.08;934.38;;;;;;;20.67;50.57;100891.41;692140;28;138607;-63
2022/06/23 01:54:07;;;;;;;995.08;929.55;;;;;;;20.67;50.45;100899.66;695091;28;46294;-63
2022/06/23 01:54:32;;;;;;;999.72;934.03;;;;;;;20.65;50.42;100899.03;691910;28;137678;-64
2022/06/23 01:54:57;;;;;;;993.88;928.30;;;;;;;20.63;50.65;100892.94;691627;28;115308;-63
2022/06/23 01:55:20;;;;;;;1003.85;937.95;;;;;;;20.64;50.44;100893.75;692815;28;114914;-63
2022/06/23 01:56:06;;;;;;;997.88;932.15;;;;;;;20.60;50.54;100890.66;693006;28;92664;-63
2022/06/23 01:56:37;;;;;;;996.03;930.42;;;;;;;20.63;50.60;100898.44;689651;28;137373;-62
2022/06/23 01:57:02;;;;;;;1001.63;935.63;;;;;;;20.63;50.47;100892.94;691711;28;135925;-63
2022/06/23 01:57:28;;;;;;;994.80;929.08;;;;;;;20.62;50.65;100899.50;692962;28;115069;-63
2022/06/23 01:57:55;;;;;;;993.17;927.63;;;;;;;20.61;50.59;100899.72;691042;28;137895;-63
2022/06/23 01:58:22;;;;;;;976.08;911.22;;;;;;;20.62;50.47;100910.47;692542;28;137785;-64